INFORMAÇÕES METEOROLÓGICAS
METAR FOR KOLM
ADDS - METARS form results

(0943 UTC 18 January 2018)
Data provider http://aviationweather.gov/adds/metars/
 
METAR text: KOLM 180933Z AUTO 23009G23KT 200V270 6SM -RA FEW018 BKN035 OVC045 09/07 A2977 RMK AO2 RAB19 P0002 T00940067
Conditions at: KOLM (OLYMPIA , WA, US) observed 0933 UTC 18 January 2018
Temperature: 9.4°C (49°F)
Dewpoint: 6.7°C (44°F) [RH = 83%]
Pressure (altimeter): 29.77 inches Hg (1008.2 mb)
Winds: from the SW (230 degrees) at 10 MPH (9 knots; 4.7 m/s)
gusting to 26 MPH (23 knots; 12.0 m/s)
Visibility: 6 miles (10 km)
Ceiling: 3500 feet AGL
Clouds: few clouds at 1800 feet AGL
broken clouds at 3500 feet AGL
overcast cloud deck at 4500 feet AGL
Weather: -RA  (light rain)

METAR text: KOLM 180909Z AUTO 24006KT 10SM BKN017 OVC050 08/06 A2977 RMK AO2 T00830061
Conditions at: KOLM (OLYMPIA , WA, US) observed 0909 UTC 18 January 2018
Temperature: 8.3°C (47°F)
Dewpoint: 6.1°C (43°F) [RH = 86%]
Pressure (altimeter): 29.77 inches Hg (1008.2 mb)
Winds: from the WSW (240 degrees) at 7 MPH (6 knots; 3.1 m/s)
Visibility: 10 or more miles (16+ km)
Ceiling: 1700 feet AGL
Clouds: broken clouds at 1700 feet AGL
overcast cloud deck at 5000 feet AGL
Weather: automated observation with no human augmentation;
there may or may not be significant weather present at this time

METAR text: KOLM 180854Z AUTO 25013G23KT 10SM FEW017 BKN055 OVC070 11/08 A2978 RMK AO2 RAB16E29 PRESRR SLP083 P0000 60000 T01060083 51006
Conditions at: KOLM (OLYMPIA , WA, US) observed 0854 UTC 18 January 2018
Temperature: 10.6°C (51°F)
Dewpoint: 8.3°C (47°F) [RH = 86%]
Pressure (altimeter): 29.78 inches Hg (1008.5 mb)
[Sea-level pressure: 1008.3 mb]
Winds: from the WSW (250 degrees) at 15 MPH (13 knots; 6.8 m/s)
gusting to 26 MPH (23 knots; 12.0 m/s)
Visibility: 10 or more miles (16+ km)
Ceiling: 5500 feet AGL
Clouds: few clouds at 1700 feet AGL
broken clouds at 5500 feet AGL
overcast cloud deck at 7000 feet AGL
Weather: automated observation with no human augmentation;
there may or may not be significant weather present at this time

Forecast for: KOLM (OLYMPIA , WA, US)
Text: KOLM 180532Z 1806/1906 20008KT P6SM -SHRA BKN035 OVC045
Forecast period: 0600 to 1700 UTC 18 January 2018
Forecast type: FROM: standard forecast or significant change
Winds: from the SSW (200 degrees) at 9 MPH (8 knots; 4.2 m/s)
Visibility: 6 or more miles (10+ km)
Ceiling: 3500 feet AGL
Clouds: broken clouds at 3500 feet AGL
overcast cloud deck at 4500 feet AGL
Weather: -SHRA  (light rain showers)
Text: FM181700 20013G24KT 5SM -SHRA BKN030 OVC050
Forecast period: 1700 UTC 18 January 2018 to 0600 UTC 19 January 2018
Forecast type: FROM: standard forecast or significant change
Winds: from the SSW (200 degrees) at 15 MPH (13 knots; 6.8 m/s)
gusting to 28 MPH (24 knots; 12.5 m/s)
Visibility: 5 miles (8 km)
Ceiling: 3000 feet AGL
Clouds: broken clouds at 3000 feet AGL
overcast cloud deck at 5000 feet AGL
Weather: -SHRA  (light rain showers)

 MAPA DO AEROPORTO

 INFORMAÇÕES DA PISTA
Pista 08 Tamanho da pista 4157 ft Largura da pista 150 ft
Elevação da pista 206 ft Ranhura da pista 0 ft Proa da pista 104
Pista 26 Tamanho da pista 4157 ft Largura da pista 150 ft
Elevação da pista 204 ft Ranhura da pista 0 ft Proa da pista 284
Pista 17 Tamanho da pista 5501 ft Largura da pista 150 ft
Elevação da pista 196 ft Ranhura da pista 0 ft Proa da pista 191
Pista 35 Tamanho da pista 5501 ft Largura da pista 150 ft
Elevação da pista 203 ft Ranhura da pista 0 ft Proa da pista 11

 FREQUÊNCIAS DO AEROPORTO
Tipo A/D Nome SEATTLE AP Frequência 121.1 MHZ
Tipo ASOS Nome ASOS Frequência 135.725 MHZ
Tipo ATIS Nome ATIS Frequência 135.375 MHZ
Tipo CTAF Nome CTAF Frequência 124.4 MHZ
Tipo GND Nome GND Frequência 121.6 MHZ
Tipo TWR Nome TWR Frequência 124.4 MHZ
Tipo UNIC Nome UNICOM Frequência 122.95 MHZ

 AUXÍLIOS DE NAVEGAÇÃO PRÓXIMOS AO AEROPORTO
Tipo VORTAC Nome Olympia Frequência 113400 KHZ





Powered by Virtual Airlines Manager [v2.6.2]